createdAt,value
2022-09-28T00:00:51.731Z,7.69
2022-09-28T00:01:51.788Z,7.68
2022-09-28T00:02:51.759Z,7.68
2022-09-28T00:03:51.681Z,7.69
2022-09-28T00:04:51.675Z,7.68
2022-09-28T00:05:51.651Z,7.69
2022-09-28T00:06:51.670Z,7.69
2022-09-28T00:07:51.631Z,7.69
2022-09-28T00:08:51.631Z,7.72
2022-09-28T00:09:51.600Z,7.71
2022-09-28T00:10:51.642Z,7.71
2022-09-28T00:11:51.610Z,7.71
2022-09-28T00:12:52.553Z,7.72
2022-09-28T00:13:52.455Z,7.71
2022-09-28T00:14:51.570Z,7.69
2022-09-28T00:15:51.541Z,7.71
2022-09-28T00:16:51.613Z,7.72
2022-09-28T00:17:51.523Z,7.75
2022-09-28T00:18:52.229Z,7.75
2022-09-28T00:19:51.500Z,7.75
2022-09-28T00:20:51.490Z,7.77
2022-09-28T00:21:51.469Z,7.77
2022-09-28T00:22:51.470Z,7.79
2022-09-28T00:23:51.459Z,7.80
2022-09-28T00:24:51.472Z,7.79
2022-09-28T00:25:51.429Z,7.77
2022-09-28T00:26:51.429Z,7.77
2022-09-28T00:27:51.414Z,7.79
2022-09-28T00:28:51.409Z,7.80
2022-09-28T00:29:52.170Z,7.82
2022-09-28T00:30:51.380Z,7.82
2022-09-28T00:31:51.375Z,7.80
2022-09-28T00:32:51.370Z,7.79
2022-09-28T00:33:52.073Z,7.80
2022-09-28T00:34:52.200Z,7.79
2022-09-28T00:35:51.369Z,7.80
2022-09-28T00:36:51.310Z,7.79
2022-09-28T00:37:51.289Z,7.80
2022-09-28T00:38:51.297Z,7.82
2022-09-28T00:39:51.268Z,7.82
2022-09-28T00:40:51.302Z,7.83
2022-09-28T00:41:51.241Z,7.83
2022-09-28T00:42:51.278Z,7.85
2022-09-28T00:43:51.220Z,7.86
2022-09-28T00:44:51.849Z,7.85
2022-09-28T00:45:51.239Z,7.85
2022-09-28T00:46:52.077Z,7.86
2022-09-28T00:47:51.178Z,7.86
2022-09-28T00:48:51.180Z,7.86
2022-09-28T00:49:51.158Z,7.87
2022-09-28T00:50:51.149Z,7.86
2022-09-28T00:51:51.143Z,7.86
2022-09-28T00:52:51.137Z,7.85
2022-09-28T00:53:51.124Z,7.83
2022-09-28T00:54:51.818Z,7.85
2022-09-28T00:55:51.090Z,7.85
2022-09-28T00:56:51.096Z,7.85
2022-09-28T00:57:51.060Z,7.82
2022-09-28T00:58:51.067Z,7.83
2022-09-28T00:59:51.040Z,7.83
2022-09-28T01:00:51.073Z,7.83
2022-09-28T01:01:51.024Z,7.82
2022-09-28T01:02:51.028Z,7.85
2022-09-28T01:03:50.997Z,7.85
2022-09-28T01:04:51.016Z,7.85
2022-09-28T01:05:50.977Z,7.85
2022-09-28T01:06:50.977Z,7.85
2022-09-28T01:07:50.977Z,7.85
2022-09-28T01:08:50.977Z,7.87
2022-09-28T01:09:50.918Z,7.86
2022-09-28T01:10:50.927Z,7.87
2022-09-28T01:11:50.908Z,7.85
2022-09-28T01:12:50.907Z,7.85
2022-09-28T01:13:50.898Z,7.85
2022-09-28T01:14:50.897Z,7.85
2022-09-28T01:15:51.009Z,7.85
2022-09-28T01:16:50.926Z,7.83
2022-09-28T01:17:50.836Z,7.86
2022-09-28T01:18:50.861Z,7.87
2022-09-28T01:19:50.806Z,7.85
2022-09-28T01:20:50.823Z,7.86
2022-09-28T01:21:50.779Z,7.90
2022-09-28T01:22:50.786Z,7.89
2022-09-28T01:23:50.765Z,7.89
2022-09-28T01:24:50.779Z,7.87
2022-09-28T01:25:50.746Z,7.86
2022-09-28T01:26:50.750Z,7.87
2022-09-28T01:27:50.720Z,7.89
2022-09-28T01:28:50.723Z,7.89
2022-09-28T01:29:50.697Z,7.87
2022-09-28T01:30:50.696Z,7.89
2022-09-28T01:31:50.908Z,7.89
2022-09-28T01:32:50.666Z,7.87
2022-09-28T01:33:50.657Z,7.89
2022-09-28T01:34:50.725Z,7.89
2022-09-28T01:35:51.469Z,7.90
2022-09-28T01:36:50.685Z,7.90
2022-09-28T01:37:50.595Z,7.90
2022-09-28T01:38:50.607Z,7.89
2022-09-28T01:39:50.576Z,7.89
2022-09-28T01:40:50.666Z,7.89
2022-09-28T01:41:50.555Z,7.87
2022-09-28T01:42:50.565Z,7.90
2022-09-28T01:43:50.536Z,7.89
2022-09-28T01:44:50.555Z,7.90
2022-09-28T01:45:50.569Z,7.87
2022-09-28T01:46:50.514Z,7.90
2022-09-28T01:47:50.516Z,7.92
2022-09-28T01:48:50.496Z,7.92
2022-09-28T01:49:50.465Z,7.89
2022-09-28T01:50:50.465Z,7.89
2022-09-28T01:51:50.444Z,7.87
2022-09-28T01:52:50.445Z,7.85
2022-09-28T01:53:50.416Z,7.83
2022-09-28T01:54:50.484Z,7.85
2022-09-28T01:55:50.405Z,7.83
2022-09-28T01:56:50.415Z,7.82
2022-09-28T01:57:50.825Z,7.82
2022-09-28T01:58:50.383Z,7.79
2022-09-28T01:59:50.354Z,7.75
2022-09-28T02:00:50.391Z,7.75
2022-09-28T02:01:50.365Z,7.74
2022-09-28T02:02:50.333Z,7.75
2022-09-28T02:03:50.304Z,7.74
2022-09-28T02:04:50.312Z,7.75
2022-09-28T02:05:50.300Z,7.72
2022-09-28T02:06:50.604Z,7.74
2022-09-28T02:07:50.254Z,7.72
2022-09-28T02:08:50.257Z,7.72
2022-09-28T02:09:51.024Z,7.72
2022-09-28T02:10:50.253Z,7.74
2022-09-28T02:11:50.215Z,7.72
2022-09-28T02:12:50.214Z,7.71
2022-09-28T02:13:50.196Z,7.72
2022-09-28T02:14:50.202Z,7.68
2022-09-28T02:15:50.964Z,7.68
2022-09-28T02:16:50.174Z,7.63
2022-09-28T02:17:50.144Z,7.64
2022-09-28T02:18:50.144Z,7.63
2022-09-28T02:19:50.123Z,7.61
2022-09-28T02:20:50.123Z,7.60
2022-09-28T02:21:50.124Z,7.58
2022-09-28T02:22:50.115Z,7.55
2022-09-28T02:23:50.074Z,7.55
2022-09-28T02:24:50.082Z,7.55
2022-09-28T02:25:50.053Z,7.53
2022-09-28T02:26:50.052Z,7.53
2022-09-28T02:27:50.050Z,7.53
2022-09-28T02:28:50.032Z,7.53
2022-09-28T02:29:50.003Z,7.50
2022-09-28T02:30:50.005Z,7.49
2022-09-28T02:31:50.059Z,7.48
2022-09-28T02:32:49.991Z,7.48
2022-09-28T02:33:49.963Z,7.48
2022-09-28T02:34:49.962Z,7.48
2022-09-28T02:35:50.832Z,7.48
2022-09-28T02:36:50.741Z,7.46
2022-09-28T02:37:49.952Z,7.45
2022-09-28T02:38:49.924Z,7.45
2022-09-28T02:39:49.894Z,7.45
2022-09-28T02:40:49.910Z,7.42
2022-09-28T02:41:49.867Z,7.43
2022-09-28T02:42:49.870Z,7.40
2022-09-28T02:43:49.853Z,7.40
2022-09-28T02:44:49.852Z,7.39
2022-09-28T02:45:49.864Z,7.35
2022-09-28T02:46:49.824Z,7.35
2022-09-28T02:47:49.802Z,7.35
2022-09-28T02:49:04.918Z,7.35
2022-09-28T02:49:50.772Z,7.35
2022-09-28T02:50:49.784Z,7.37
2022-09-28T02:51:49.754Z,7.37
2022-09-28T02:52:49.751Z,7.37
2022-09-28T02:53:50.141Z,7.35
2022-09-28T02:54:49.730Z,7.39
2022-09-28T02:55:49.701Z,7.39
2022-09-28T02:56:49.814Z,7.35
2022-09-28T02:57:49.683Z,7.35
2022-09-28T02:58:49.683Z,7.35
2022-09-28T02:59:49.672Z,7.35
2022-09-28T03:00:49.767Z,7.37
2022-09-28T03:01:49.655Z,7.37
2022-09-28T03:02:49.639Z,7.39
2022-09-28T03:03:49.619Z,7.37
2022-09-28T03:04:49.630Z,7.35
2022-09-28T03:05:49.592Z,7.35
2022-09-28T03:06:49.616Z,7.39
2022-09-28T03:07:49.575Z,7.37
2022-09-28T03:08:49.569Z,7.37
2022-09-28T03:09:49.541Z,7.35
2022-09-28T03:10:49.556Z,7.37
2022-09-28T03:11:49.520Z,7.37
2022-09-28T03:12:49.532Z,7.37
2022-09-28T03:13:49.511Z,7.37
2022-09-28T03:14:49.501Z,7.39
2022-09-28T03:15:49.489Z,7.39
2022-09-28T03:16:50.257Z,7.40
2022-09-28T03:17:50.379Z,7.40
2022-09-28T03:18:49.474Z,7.42
2022-09-28T03:19:49.440Z,7.42
2022-09-28T03:20:49.437Z,7.40
2022-09-28T03:21:49.408Z,7.40
2022-09-28T03:23:12.427Z,7.40
2022-09-28T03:23:50.380Z,7.39
2022-09-28T03:24:49.388Z,7.40
2022-09-28T03:25:49.710Z,7.39
2022-09-28T03:26:49.580Z,7.40
2022-09-28T03:27:49.339Z,7.37
2022-09-28T03:28:49.340Z,7.35
2022-09-28T03:29:49.318Z,7.39
2022-09-28T03:30:49.321Z,7.37
2022-09-28T03:31:49.385Z,7.39
2022-09-28T03:32:49.299Z,7.40
2022-09-28T03:33:49.270Z,7.39
2022-09-28T03:34:49.279Z,7.42
2022-09-28T03:35:49.249Z,7.42
2022-09-28T03:36:49.331Z,7.42
2022-09-28T03:37:49.998Z,7.40
2022-09-28T03:38:49.300Z,7.42
2022-09-28T03:39:49.203Z,7.42
2022-09-28T03:40:49.236Z,7.42
2022-09-28T03:41:49.179Z,7.42
2022-09-28T03:42:49.190Z,7.42
2022-09-28T03:43:49.171Z,7.42
2022-09-28T03:44:49.169Z,7.40
2022-09-28T03:45:49.158Z,7.39
2022-09-28T03:46:49.138Z,7.39
2022-09-28T03:47:49.109Z,7.39
2022-09-28T03:48:49.123Z,7.39
2022-09-28T03:49:49.098Z,7.40
2022-09-28T03:50:49.099Z,7.40
2022-09-28T03:51:49.067Z,7.40
2022-09-28T03:52:49.068Z,7.40
2022-09-28T03:53:49.059Z,7.40
2022-09-28T03:54:49.448Z,7.42
2022-09-28T03:55:49.038Z,7.39
2022-09-28T03:56:49.047Z,7.37
2022-09-28T03:57:49.388Z,7.37
2022-09-28T03:58:48.992Z,7.35
2022-09-28T03:59:48.989Z,7.35
2022-09-28T04:00:48.986Z,7.35
2022-09-28T04:01:49.002Z,7.34
2022-09-28T04:02:48.947Z,7.34
2022-09-28T04:03:48.948Z,7.34
2022-09-28T04:04:48.938Z,7.34
2022-09-28T04:05:48.928Z,7.35
2022-09-28T04:06:49.778Z,7.35
2022-09-28T04:07:48.907Z,7.35
2022-09-28T04:08:48.877Z,7.37
2022-09-28T04:09:48.887Z,7.35
2022-09-28T04:10:48.867Z,7.39
2022-09-28T04:12:03.377Z,7.37
2022-09-28T04:12:49.827Z,7.39
2022-09-28T04:13:48.847Z,7.39
2022-09-28T04:14:48.810Z,7.39
2022-09-28T04:15:48.817Z,7.39
2022-09-28T04:16:48.836Z,7.37
2022-09-28T04:17:48.857Z,7.37
2022-09-28T04:18:48.768Z,7.35
2022-09-28T04:19:48.782Z,7.34
2022-09-28T04:20:48.812Z,7.35
2022-09-28T04:21:48.747Z,7.35
2022-09-28T04:22:48.718Z,7.34
2022-09-28T04:23:48.732Z,7.34
2022-09-28T04:24:48.695Z,7.35
2022-09-28T04:25:48.698Z,7.35
2022-09-28T04:26:48.698Z,7.34
2022-09-28T04:27:48.667Z,7.34
2022-09-28T04:28:48.657Z,7.34
2022-09-28T04:29:48.646Z,7.34
2022-09-28T04:30:48.627Z,7.32
2022-09-28T04:31:48.763Z,7.32
2022-09-28T04:32:48.616Z,7.31
2022-09-28T04:33:48.605Z,7.31
2022-09-28T04:34:48.585Z,7.31
2022-09-28T04:35:48.586Z,7.31
2022-09-28T04:36:48.557Z,7.31
2022-09-28T04:37:48.578Z,7.32
2022-09-28T04:38:53.219Z,7.32
2022-09-28T04:39:48.789Z,7.31
2022-09-28T04:40:48.561Z,7.31
2022-09-28T04:41:48.518Z,7.31
2022-09-28T04:42:48.488Z,7.31
2022-09-28T04:43:48.496Z,7.28
2022-09-28T04:44:48.469Z,7.28
2022-09-28T04:45:48.624Z,7.30
2022-09-28T04:46:48.446Z,7.30
2022-09-28T04:47:48.459Z,7.30
2022-09-28T04:48:48.430Z,7.30
2022-09-28T04:49:48.423Z,7.28
2022-09-28T04:50:49.145Z,7.28
2022-09-28T04:51:48.468Z,7.28
2022-09-28T04:52:48.375Z,7.28
2022-09-28T04:53:48.384Z,7.27
2022-09-28T04:54:48.371Z,7.28
2022-09-28T04:55:48.355Z,7.27
2022-09-28T04:56:48.355Z,7.27
2022-09-28T04:57:48.333Z,7.25
2022-09-28T04:58:52.626Z,7.24
2022-09-28T04:59:49.072Z,7.25
2022-09-28T05:00:48.563Z,7.24
2022-09-28T05:01:48.372Z,7.25
2022-09-28T05:02:48.264Z,7.25
2022-09-28T05:03:48.264Z,7.25
2022-09-28T05:04:48.234Z,7.25
2022-09-28T05:05:48.266Z,7.27
2022-09-28T05:06:48.226Z,7.27
2022-09-28T05:07:48.215Z,7.27
2022-09-28T05:08:48.193Z,7.27
2022-09-28T05:09:48.200Z,7.25
2022-09-28T05:10:48.163Z,7.25
2022-09-28T05:11:48.868Z,7.27
2022-09-28T05:12:48.164Z,7.25
2022-09-28T05:13:48.154Z,7.27
2022-09-28T05:14:48.124Z,7.25
2022-09-28T05:15:48.132Z,7.24
2022-09-28T05:16:48.178Z,7.23
2022-09-28T05:17:48.109Z,7.20
2022-09-28T05:18:48.093Z,7.21
2022-09-28T05:19:48.082Z,7.21
2022-09-28T05:20:48.054Z,7.17
2022-09-28T05:21:48.064Z,7.16
2022-09-28T05:22:48.033Z,7.17
2022-09-28T05:23:48.042Z,7.17
2022-09-28T05:24:48.016Z,7.20
2022-09-28T05:25:48.013Z,7.17
2022-09-28T05:26:47.983Z,7.21
2022-09-28T05:27:47.992Z,7.17
2022-09-28T05:28:47.965Z,7.20
2022-09-28T05:29:47.963Z,7.20
2022-09-28T05:30:47.972Z,7.17
2022-09-28T05:31:47.986Z,7.16
2022-09-28T05:32:47.922Z,7.16
2022-09-28T05:33:47.928Z,7.16
2022-09-28T05:34:47.942Z,7.17
2022-09-28T05:35:52.379Z,7.20
2022-09-28T05:36:48.873Z,7.17
2022-09-28T05:37:47.884Z,7.17
2022-09-28T05:38:47.852Z,7.20
2022-09-28T05:39:48.780Z,7.20
2022-09-28T05:40:47.913Z,7.20
2022-09-28T05:41:47.831Z,7.20
2022-09-28T05:42:47.812Z,7.21
2022-09-28T05:43:47.812Z,7.21
2022-09-28T05:44:47.791Z,7.23
2022-09-28T05:45:51.524Z,7.23
2022-09-28T05:46:48.771Z,7.21
2022-09-28T05:47:47.770Z,7.21
2022-09-28T05:48:47.753Z,7.21
2022-09-28T05:49:47.731Z,7.20
2022-09-28T05:50:47.711Z,7.17
2022-09-28T05:51:47.720Z,7.17
2022-09-28T05:52:47.693Z,7.21
2022-09-28T05:53:47.693Z,7.23
2022-09-28T05:54:47.681Z,7.24
2022-09-28T05:55:47.673Z,7.25
2022-09-28T05:56:47.652Z,7.27
2022-09-28T05:57:47.655Z,7.27
2022-09-28T05:58:47.620Z,7.24
2022-09-28T05:59:47.623Z,7.25
2022-09-28T06:00:48.588Z,7.27
2022-09-28T06:01:48.460Z,7.28
2022-09-28T06:02:47.741Z,7.28
2022-09-28T06:03:47.581Z,7.27
2022-09-28T06:04:47.551Z,7.28
2022-09-28T06:05:47.561Z,7.31
2022-09-28T06:06:47.530Z,7.30
2022-09-28T06:07:47.530Z,7.30
2022-09-28T06:08:47.510Z,7.30
2022-09-28T06:09:47.540Z,7.31
2022-09-28T06:10:47.480Z,7.31
2022-09-28T06:11:47.480Z,7.31
2022-09-28T06:12:47.460Z,7.32
2022-09-28T06:13:47.480Z,7.37
2022-09-28T06:14:47.430Z,7.37
2022-09-28T06:15:47.438Z,7.39
2022-09-28T06:16:47.458Z,7.42
2022-09-28T06:17:47.418Z,7.45
2022-09-28T06:18:47.400Z,7.45
2022-09-28T06:19:47.406Z,7.46
2022-09-28T06:20:47.393Z,7.45
2022-09-28T06:21:48.330Z,7.48
2022-09-28T06:22:47.370Z,7.48
2022-09-28T06:23:49.365Z,7.46
2022-09-28T06:24:47.347Z,7.49
2022-09-28T06:25:47.330Z,7.52
2022-09-28T06:26:47.300Z,7.53
2022-09-28T06:27:47.300Z,7.55
2022-09-28T06:28:48.171Z,7.57
2022-09-28T06:29:47.289Z,7.58
2022-09-28T06:30:47.332Z,7.60
2022-09-28T06:31:47.264Z,7.63
2022-09-28T06:32:47.230Z,7.63
2022-09-28T06:33:47.291Z,7.63
2022-09-28T06:34:47.210Z,7.63
2022-09-28T06:35:47.218Z,7.64
2022-09-28T06:36:47.230Z,7.64
2022-09-28T06:37:47.196Z,7.67
2022-09-28T06:38:47.159Z,7.64
2022-09-28T06:39:47.320Z,7.68
2022-09-28T06:40:47.215Z,7.68
2022-09-28T06:41:47.948Z,7.64
2022-09-28T06:42:47.131Z,7.64
2022-09-28T06:43:47.167Z,7.68
2022-09-28T06:44:47.105Z,7.68
2022-09-28T06:45:47.132Z,7.68
2022-09-28T06:46:47.079Z,7.67
2022-09-28T06:47:47.085Z,7.67
2022-09-28T06:48:47.078Z,7.71
2022-09-28T06:49:47.059Z,7.74
2022-09-28T06:50:47.027Z,7.75
2022-09-28T06:51:47.030Z,7.82
2022-09-28T06:52:47.008Z,7.83
2022-09-28T06:53:47.268Z,7.86
2022-09-28T06:54:47.011Z,7.89
2022-09-28T06:55:46.999Z,7.92
2022-09-28T06:56:46.977Z,7.95
2022-09-28T06:57:46.986Z,8.00
2022-09-28T06:58:46.944Z,8.01
2022-09-28T06:59:46.947Z,8.04
2022-09-28T07:00:47.718Z,8.08
2022-09-28T07:01:47.051Z,8.11
2022-09-28T07:02:47.782Z,8.15
2022-09-28T07:03:46.916Z,8.11
2022-09-28T07:04:46.886Z,8.11
2022-09-28T07:05:46.877Z,8.04
2022-09-28T07:06:46.907Z,8.02
2022-09-28T07:07:46.875Z,8.07
2022-09-28T07:08:57.873Z,8.11
2022-09-28T07:09:51.232Z,8.18
2022-09-28T07:10:47.728Z,8.23
2022-09-28T07:11:46.818Z,8.30
2022-09-28T07:12:46.797Z,8.37
2022-09-28T07:13:51.018Z,8.44
2022-09-28T07:14:48.377Z,8.50
2022-09-28T07:15:46.768Z,8.52
2022-09-28T07:17:10.033Z,8.56
2022-09-28T07:18:00.571Z,8.62
2022-09-28T07:18:47.737Z,8.68
2022-09-28T07:19:47.104Z,8.68
2022-09-28T07:20:53.332Z,8.73
2022-09-28T07:21:59.019Z,8.66
2022-09-28T07:22:48.394Z,8.66
2022-09-28T07:23:53.610Z,8.70
2022-09-28T07:24:47.656Z,8.73
2022-09-28T07:25:46.681Z,8.76
2022-09-28T07:26:46.645Z,8.80
2022-09-28T07:27:46.636Z,8.84
2022-09-28T07:28:46.607Z,8.86
2022-09-28T07:29:46.617Z,8.87
2022-09-28T07:30:46.674Z,8.89
2022-09-28T07:31:46.596Z,8.89
2022-09-28T07:32:46.571Z,8.87
2022-09-28T07:33:46.566Z,8.91
2022-09-28T07:34:46.546Z,8.96
2022-09-28T07:35:46.548Z,8.96
2022-09-28T07:36:46.536Z,8.92
2022-09-28T07:37:46.607Z,8.92
2022-09-28T07:38:46.505Z,8.94
2022-09-28T07:39:46.506Z,8.92
2022-09-28T07:40:48.419Z,8.91
2022-09-28T07:41:46.476Z,8.83
2022-09-28T07:42:46.606Z,8.81
2022-09-28T07:43:47.145Z,8.84
2022-09-28T07:44:46.447Z,8.81
2022-09-28T07:45:46.480Z,8.81
2022-09-28T07:46:46.435Z,8.81
2022-09-28T07:47:46.468Z,8.81
2022-09-28T07:48:46.398Z,8.80
2022-09-28T07:49:46.391Z,8.81
2022-09-28T07:50:46.375Z,8.83
2022-09-28T07:51:46.444Z,8.86
2022-09-28T07:52:46.344Z,8.86
2022-09-28T07:53:46.345Z,8.86
2022-09-28T07:54:46.325Z,8.84
2022-09-28T07:55:46.326Z,8.89
2022-09-28T07:56:47.148Z,8.94
2022-09-28T07:57:46.315Z,8.94
2022-09-28T07:58:46.326Z,8.95
2022-09-28T07:59:46.304Z,8.95
2022-09-28T08:00:46.285Z,8.96
2022-09-28T08:01:46.354Z,8.95
2022-09-28T08:02:47.128Z,8.96
2022-09-28T08:03:46.995Z,8.89
2022-09-28T08:04:46.236Z,8.86
2022-09-28T08:05:46.215Z,8.83
2022-09-28T08:06:46.205Z,8.84
2022-09-28T08:07:46.216Z,8.81
2022-09-28T08:08:46.170Z,8.74
2022-09-28T08:09:46.186Z,8.74
2022-09-28T08:10:47.420Z,8.74
2022-09-28T08:11:46.133Z,8.76
2022-09-28T08:12:46.174Z,8.73
2022-09-28T08:13:46.114Z,8.76
2022-09-28T08:14:46.114Z,8.80
2022-09-28T08:15:46.085Z,8.84
2022-09-28T08:16:47.665Z,8.91
2022-09-28T08:17:46.068Z,8.94
2022-09-28T08:18:46.824Z,8.95
2022-09-28T08:19:46.056Z,8.96
2022-09-28T08:20:50.729Z,8.87
2022-09-28T08:21:47.034Z,8.84
2022-09-28T08:22:46.034Z,8.81
2022-09-28T08:23:46.854Z,8.83
2022-09-28T08:24:46.774Z,8.83
2022-09-28T08:25:45.984Z,8.87
2022-09-28T08:26:45.996Z,8.95
2022-09-28T08:27:45.955Z,8.99
2022-09-28T08:28:45.963Z,9.05
2022-09-28T08:29:45.943Z,9.11
2022-09-28T08:30:46.014Z,9.17
2022-09-28T08:31:45.921Z,9.18
2022-09-28T08:32:45.915Z,9.18
2022-09-28T08:33:45.894Z,9.20
2022-09-28T08:34:45.906Z,9.24
2022-09-28T08:35:45.874Z,9.21
2022-09-28T08:36:45.881Z,9.17
2022-09-28T08:37:49.908Z,9.21
2022-09-28T08:38:46.854Z,9.23
2022-09-28T08:39:45.824Z,9.23
2022-09-28T08:40:45.864Z,9.20
2022-09-28T08:41:45.803Z,9.24
2022-09-28T08:42:45.805Z,9.20
2022-09-28T08:43:46.503Z,9.17
2022-09-28T08:44:46.644Z,9.20
2022-09-28T08:45:45.794Z,9.23
2022-09-28T08:46:45.763Z,9.24
2022-09-28T08:47:45.733Z,9.24
2022-09-28T08:48:56.348Z,9.26
2022-09-28T08:49:46.749Z,9.28
2022-09-28T08:50:45.733Z,9.38
2022-09-28T08:51:46.473Z,9.43
2022-09-28T08:52:45.714Z,9.53
2022-09-28T08:53:45.663Z,9.64
2022-09-28T08:54:45.672Z,9.68
2022-09-28T08:55:45.649Z,9.72
2022-09-28T08:56:45.663Z,9.74
2022-09-28T08:57:45.632Z,9.72
2022-09-28T08:58:45.643Z,9.72
2022-09-28T08:59:45.602Z,9.72
2022-09-28T09:00:45.607Z,9.71
2022-09-28T09:01:45.649Z,9.72
2022-09-28T09:02:45.958Z,9.76
2022-09-28T09:03:45.575Z,9.81
2022-09-28T09:04:45.807Z,9.78
2022-09-28T09:05:45.540Z,9.76
2022-09-28T09:06:45.549Z,9.78
2022-09-28T09:07:45.793Z,9.72
2022-09-28T09:08:45.526Z,9.61
2022-09-28T09:09:45.512Z,9.58
2022-09-28T09:10:45.492Z,9.58
2022-09-28T09:11:45.474Z,9.57
2022-09-28T09:12:45.525Z,9.57
2022-09-28T09:13:45.454Z,9.69
2022-09-28T09:14:45.479Z,9.74
2022-09-28T09:15:45.474Z,9.81
2022-09-28T09:16:45.510Z,9.94
2022-09-28T09:17:45.392Z,10.07
2022-09-28T09:18:45.411Z,10.08
2022-09-28T09:19:45.381Z,10.01
2022-09-28T09:20:45.381Z,10.02
2022-09-28T09:21:45.361Z,10.02
2022-09-28T09:22:45.374Z,9.97
2022-09-28T09:23:45.331Z,10.05
2022-09-28T09:24:46.124Z,10.09
2022-09-28T09:25:45.496Z,10.14
2022-09-28T09:26:45.332Z,10.17
2022-09-28T09:27:45.301Z,10.23
2022-09-28T09:28:45.291Z,10.27
2022-09-28T09:29:45.272Z,10.33
2022-09-28T09:30:45.290Z,10.42
2022-09-28T09:31:45.251Z,10.52
2022-09-28T09:32:45.252Z,10.56
2022-09-28T09:33:45.221Z,10.56
2022-09-28T09:34:45.233Z,10.61
2022-09-28T09:35:45.211Z,10.64
2022-09-28T09:36:45.212Z,10.61
2022-09-28T09:37:45.182Z,10.56
2022-09-28T09:38:45.183Z,10.48
2022-09-28T09:39:45.172Z,10.25
2022-09-28T09:40:45.212Z,10.18
2022-09-28T09:41:45.131Z,10.17
2022-09-28T09:42:45.130Z,10.17
2022-09-28T09:43:45.136Z,10.01
2022-09-28T09:44:45.110Z,9.97
2022-09-28T09:45:45.125Z,9.96
2022-09-28T09:46:45.814Z,9.87
2022-09-28T09:47:45.077Z,9.84
2022-09-28T09:48:45.107Z,9.83
2022-09-28T09:49:45.093Z,9.76
2022-09-28T09:50:45.041Z,9.53
2022-09-28T09:51:45.261Z,9.50
2022-09-28T09:52:45.023Z,9.48
2022-09-28T09:53:45.001Z,9.47
2022-09-28T09:54:45.021Z,9.48
2022-09-28T09:55:44.974Z,9.53
2022-09-28T09:56:44.980Z,9.53
2022-09-28T09:57:45.643Z,9.58
2022-09-28T09:58:44.951Z,9.66
2022-09-28T09:59:44.986Z,9.75
2022-09-28T10:00:45.742Z,9.84
2022-09-28T10:01:44.964Z,9.89
2022-09-28T10:02:45.045Z,9.96
2022-09-28T10:03:44.883Z,9.99
2022-09-28T10:04:44.881Z,10.04
2022-09-28T10:05:45.771Z,10.09
2022-09-28T10:06:45.691Z,10.15
2022-09-28T10:07:44.842Z,10.11
2022-09-28T10:08:44.831Z,10.09
2022-09-28T10:09:44.811Z,10.09
2022-09-28T10:10:44.818Z,10.05
2022-09-28T10:11:44.783Z,10.09
2022-09-28T10:12:44.793Z,10.08
2022-09-28T10:13:44.800Z,10.05
2022-09-28T10:14:44.761Z,10.18
2022-09-28T10:15:44.760Z,10.38
2022-09-28T10:16:44.821Z,10.51
2022-09-28T10:17:44.720Z,10.61
2022-09-28T10:18:44.759Z,10.66
2022-09-28T10:19:44.701Z,10.78
2022-09-28T10:20:44.700Z,10.78
2022-09-28T10:21:44.681Z,10.79
2022-09-28T10:22:44.681Z,10.92
2022-09-28T10:23:44.651Z,11.02
2022-09-28T10:24:44.704Z,11.02
2022-09-28T10:25:44.649Z,11.00
2022-09-28T10:26:44.933Z,10.99
2022-09-28T10:27:44.620Z,11.02
2022-09-28T10:28:44.600Z,11.03
2022-09-28T10:29:45.030Z,11.02
2022-09-28T10:30:44.771Z,11.02
2022-09-28T10:31:44.560Z,10.82
2022-09-28T10:32:44.570Z,10.73
2022-09-28T10:33:44.550Z,10.70
2022-09-28T10:34:48.751Z,10.63
2022-09-28T10:35:45.521Z,10.59
2022-09-28T10:36:44.657Z,10.55
2022-09-28T10:37:44.552Z,10.51
2022-09-28T10:38:44.502Z,10.48
2022-09-28T10:39:44.471Z,10.45
2022-09-28T10:40:45.306Z,10.44
2022-09-28T10:41:45.161Z,10.48
2022-09-28T10:42:44.463Z,10.52
2022-09-28T10:43:47.756Z,10.53
2022-09-28T10:44:45.428Z,10.55
2022-09-28T10:45:44.443Z,10.59
2022-09-28T10:46:44.467Z,10.61
2022-09-28T10:47:45.101Z,10.66
2022-09-28T10:48:44.409Z,10.70
2022-09-28T10:49:47.097Z,10.73
2022-09-28T10:50:44.361Z,10.74
2022-09-28T10:51:44.419Z,10.78
2022-09-28T10:52:44.338Z,10.78
2022-09-28T10:53:44.310Z,10.82
2022-09-28T10:54:44.319Z,10.81
2022-09-28T10:55:44.291Z,10.81
2022-09-28T10:56:44.322Z,10.85
2022-09-28T10:57:44.279Z,10.85
2022-09-28T10:58:44.277Z,10.86
2022-09-28T10:59:44.241Z,10.91
2022-09-28T11:00:44.240Z,11.00
2022-09-28T11:01:44.333Z,11.11
2022-09-28T11:02:44.977Z,11.11
2022-09-28T11:03:44.209Z,11.17
2022-09-28T11:04:44.210Z,11.24
2022-09-28T11:05:44.171Z,11.11
2022-09-28T11:06:44.189Z,11.09
2022-09-28T11:07:44.219Z,11.15
2022-09-28T11:08:44.717Z,11.19
2022-09-28T11:09:46.777Z,11.21
2022-09-28T11:10:44.139Z,11.21
2022-09-28T11:11:44.140Z,11.18
2022-09-28T11:12:44.120Z,11.06
2022-09-28T11:13:44.159Z,11.06
2022-09-28T11:14:44.089Z,11.03
2022-09-28T11:15:44.953Z,11.07
2022-09-28T11:16:44.145Z,11.15
2022-09-28T11:17:44.791Z,11.25
2022-09-28T11:18:44.068Z,11.37
2022-09-28T11:19:44.019Z,11.47
2022-09-28T11:20:45.520Z,11.58
2022-09-28T11:21:43.998Z,11.67
2022-09-28T11:22:44.029Z,11.82
2022-09-28T11:23:43.978Z,11.86
2022-09-28T11:24:43.978Z,11.83
2022-09-28T11:25:43.948Z,11.91
2022-09-28T11:26:43.969Z,12.04
2022-09-28T11:27:44.811Z,12.05
2022-09-28T11:28:43.959Z,12.05
2022-09-28T11:29:43.919Z,11.99
2022-09-28T11:30:43.948Z,11.80
2022-09-28T11:31:43.898Z,11.73
2022-09-28T11:32:43.898Z,11.65
2022-09-28T11:33:43.868Z,11.54
2022-09-28T11:34:58.539Z,11.40
2022-09-28T11:35:44.857Z,11.25
2022-09-28T11:36:43.849Z,11.17
2022-09-28T11:37:43.829Z,11.06
2022-09-28T11:38:43.829Z,11.03
2022-09-28T11:39:43.799Z,10.96
2022-09-28T11:40:43.860Z,10.89
2022-09-28T11:41:43.799Z,10.89
2022-09-28T11:42:43.788Z,10.84
2022-09-28T11:43:43.758Z,10.86
2022-09-28T11:44:43.768Z,10.79
2022-09-28T11:45:43.816Z,10.78
2022-09-28T11:46:44.268Z,10.76
2022-09-28T11:47:44.492Z,10.78
2022-09-28T11:48:44.587Z,10.86
2022-09-28T11:49:43.738Z,10.96
2022-09-28T11:50:43.709Z,11.03
2022-09-28T11:51:43.676Z,11.14
2022-09-28T11:52:43.708Z,11.28
2022-09-28T11:53:43.662Z,11.29
2022-09-28T11:54:43.850Z,11.36
2022-09-28T11:55:43.633Z,11.25
2022-09-28T11:56:43.629Z,11.19
2022-09-28T11:57:43.618Z,11.11
2022-09-28T11:58:43.609Z,11.00
2022-09-28T11:59:43.578Z,10.99
2022-09-28T12:00:43.588Z,11.07
2022-09-28T12:01:43.570Z,11.19
2022-09-28T12:02:43.684Z,11.27
2022-09-28T12:03:43.680Z,11.35
2022-09-28T12:04:43.542Z,11.42
2022-09-28T12:05:43.579Z,11.51
2022-09-28T12:06:43.519Z,11.62
2022-09-28T12:07:44.298Z,11.64
2022-09-28T12:08:43.529Z,11.70
2022-09-28T12:09:44.371Z,11.76
2022-09-28T12:10:45.663Z,11.85
2022-09-28T12:11:43.484Z,11.90
2022-09-28T12:12:43.458Z,11.86
2022-09-28T12:13:43.428Z,11.86
2022-09-28T12:14:43.437Z,11.85
2022-09-28T12:16:11.586Z,11.85
2022-09-28T12:17:44.453Z,11.86
2022-09-28T12:18:43.389Z,11.91
2022-09-28T12:19:43.383Z,11.90
2022-09-28T12:20:43.367Z,11.94
2022-09-28T12:21:43.339Z,11.91
2022-09-28T12:22:43.349Z,11.95
2022-09-28T12:23:43.327Z,11.94
2022-09-28T12:24:43.429Z,11.96
2022-09-28T12:25:43.470Z,11.98
2022-09-28T12:26:43.318Z,12.01
2022-09-28T12:27:43.299Z,12.02
2022-09-28T12:28:44.077Z,12.04
2022-09-28T12:29:43.980Z,12.04
2022-09-28T12:30:44.195Z,11.79
2022-09-28T12:31:43.258Z,11.82
2022-09-28T12:32:43.228Z,11.85
2022-09-28T12:33:43.227Z,11.65
2022-09-28T12:34:43.230Z,11.65
2022-09-28T12:35:43.207Z,11.73
2022-09-28T12:36:43.188Z,11.80
2022-09-28T12:37:43.198Z,11.79
2022-09-28T12:38:43.336Z,11.80
2022-09-28T12:39:56.886Z,11.88
2022-09-28T12:40:44.187Z,11.80
2022-09-28T12:41:43.859Z,11.85
2022-09-28T12:42:43.129Z,11.73
2022-09-28T12:43:43.121Z,11.67
2022-09-28T12:44:43.099Z,11.72
2022-09-28T12:46:09.978Z,11.72
2022-09-28T12:46:44.144Z,11.76
2022-09-28T12:47:43.076Z,11.79
2022-09-28T12:48:43.048Z,11.83
2022-09-28T12:50:51.285Z,11.78
2022-09-28T12:51:44.036Z,11.79
2022-09-28T12:52:43.014Z,11.85
2022-09-28T12:53:43.007Z,11.90
2022-09-28T12:54:43.019Z,11.96
2022-09-28T12:55:43.018Z,12.04
2022-09-28T12:56:42.978Z,12.09
2022-09-28T12:57:42.985Z,12.07
2022-09-28T12:58:42.940Z,11.94
2022-09-28T12:59:42.939Z,11.88
2022-09-28T13:00:42.917Z,11.88
2022-09-28T13:01:42.970Z,11.91
2022-09-28T13:02:42.956Z,11.95
2022-09-28T13:03:42.926Z,11.98
2022-09-28T13:04:42.875Z,11.98
2022-09-28T13:05:43.612Z,12.05
2022-09-28T13:06:42.856Z,12.05
2022-09-28T13:07:42.864Z,11.99
2022-09-28T13:08:43.571Z,12.01
2022-09-28T13:09:43.719Z,11.82
2022-09-28T13:10:43.628Z,11.76
2022-09-28T13:11:42.856Z,11.82
2022-09-28T13:12:42.791Z,11.85
2022-09-28T13:13:42.789Z,11.72